Time;durP1;ratioP1;P1;durP2;ratioP2;P2;SDS_P1;SDS_P2;PMS_P1;PMS_P2;Temp;Humidity;BMP_temperature;BMP_pressure;BME280_temperature;BME280_humidity;BME280_pressure;Samples;Min_cycle;Max_cycle;Signal;HPM_P1;HPM_P2
2021/12/12 00:04:46;;;;;;;15.40;5.93;;;;;;;15.91;52.69;96226.94;10460279;28;20067;-79
2021/12/12 00:09:54;;;;;;;15.23;5.80;;;;;;;15.90;52.90;96227.91;10460516;28;20490;-78
2021/12/12 00:14:55;;;;;;;9.95;6.07;;;;;;;15.89;52.86;96236.75;10459666;28;20406;-79
2021/12/12 00:19:57;;;;;;;13.32;6.18;;;;;;;15.92;52.53;96256.38;10442230;28;20079;-79
2021/12/12 00:24:59;;;;;;;11.32;5.63;;;;;;;15.90;52.79;96263.56;10459461;28;20045;-79
2021/12/12 00:30:03;;;;;;;13.07;5.88;;;;;;;15.89;52.45;96257.56;10459331;28;20041;-79
2021/12/12 00:35:13;;;;;;;10.18;6.28;;;;;;;15.91;52.47;96265.19;10440768;28;20052;-79
2021/12/12 00:40:17;;;;;;;10.35;5.68;;;;;;;15.91;52.47;96262.59;10441145;28;20529;-79
2021/12/12 00:45:21;;;;;;;11.63;5.50;;;;;;;15.90;52.46;96264.38;10458851;28;20103;-78
2021/12/12 00:50:28;;;;;;;10.48;5.50;;;;;;;15.89;52.31;96269.75;10458862;28;20487;-78
2021/12/12 00:55:30;;;;;;;8.20;5.70;;;;;;;15.89;52.47;96260.16;10458318;28;20037;-78
2021/12/12 01:00:42;;;;;;;8.45;5.13;;;;;;;15.89;52.04;96265.38;10458163;28;20061;-80
2021/12/12 01:05:46;;;;;;;13.13;5.80;;;;;;;15.89;52.32;96283.59;10458141;28;20387;-79
2021/12/12 01:10:55;;;;;;;7.85;5.22;;;;;;;15.89;52.21;96277.56;10458218;28;20048;-79
2021/12/12 01:16:06;;;;;;;10.45;5.25;;;;;;;15.89;52.01;96278.38;10457609;28;20040;-78
2021/12/12 01:21:14;;;;;;;6.97;4.97;;;;;;;15.89;52.13;96294.00;10457411;28;20045;-80
2021/12/12 01:26:17;;;;;;;9.20;5.35;;;;;;;15.87;52.23;96292.56;10457332;28;20108;-79
2021/12/12 01:31:24;;;;;;;7.93;5.13;;;;;;;15.88;51.98;96299.41;10457062;28;20095;-79
2021/12/12 01:36:45;;;;;;;8.13;4.90;;;;;;;15.89;52.12;96312.22;10457044;28;20045;-79
2021/12/12 01:42:21;;;;;;;10.23;4.70;;;;;;;15.88;51.98;96320.22;10456996;28;20297;-79
2021/12/12 01:47:34;;;;;;;7.47;4.57;;;;;;;15.88;51.88;96315.03;10456152;28;20041;-79
2021/12/12 01:52:36;;;;;;;7.15;4.63;;;;;;;15.87;52.05;96314.19;10422571;28;20045;-78
2021/12/12 01:57:39;;;;;;;6.95;4.85;;;;;;;15.87;52.13;96321.22;10451600;28;20048;-79
2021/12/12 02:02:42;;;;;;;9.80;4.47;;;;;;;15.86;52.10;96312.59;10453716;28;20089;-79
2021/12/12 02:07:51;;;;;;;7.35;5.03;;;;;;;15.86;51.90;96323.00;10444722;28;20398;-78
2021/12/12 02:12:52;;;;;;;6.68;4.80;;;;;;;15.87;52.02;96319.41;10416142;28;20095;-78
2021/12/12 02:17:54;;;;;;;6.75;4.30;;;;;;;15.84;51.88;96327.56;10418737;28;20037;-79
2021/12/12 02:23:12;;;;;;;10.35;4.68;;;;;;;15.86;51.82;96330.81;10454703;28;20056;-78
2021/12/12 02:38:58;;;;;;;7.15;3.88;;;;;;;15.84;51.82;96331.97;10454202;28;20049;-79
2021/12/12 02:44:03;;;;;;;5.80;4.05;;;;;;;15.83;51.81;96327.75;10436731;28;20049;-77
2021/12/12 02:49:11;;;;;;;8.30;4.32;;;;;;;15.83;51.56;96322.53;10454077;28;20111;-78
2021/12/12 02:54:12;;;;;;;6.03;4.10;;;;;;;15.81;51.82;96334.94;10453596;28;20052;-78
2021/12/12 02:59:19;;;;;;;5.95;4.28;;;;;;;15.81;51.75;96340.94;10453097;28;20067;-78
2021/12/12 03:04:23;;;;;;;6.78;4.28;;;;;;;15.81;51.64;96342.75;10453980;28;20052;-78
2021/12/12 03:09:31;;;;;;;6.80;3.78;;;;;;;15.81;51.39;96335.75;10453701;28;20506;-79
2021/12/12 03:14:35;;;;;;;5.65;4.25;;;;;;;15.82;51.50;96341.78;10453816;28;20053;-78
2021/12/12 03:19:37;;;;;;;6.18;4.00;;;;;;;15.80;51.59;96344.56;10453353;28;20403;-78
2021/12/12 03:24:39;;;;;;;7.88;4.13;;;;;;;15.78;51.68;96343.94;10453740;28;20395;-78
2021/12/12 03:29:43;;;;;;;5.10;3.60;;;;;;;15.78;51.47;96349.16;10453549;28;20036;-78
2021/12/12 03:34:53;;;;;;;7.15;3.83;;;;;;;15.78;51.37;96356.97;10453224;28;20075;-77
2021/12/12 03:39:57;;;;;;;4.90;3.50;;;;;;;15.77;51.51;96350.13;10452952;28;20053;-77
2021/12/12 03:45:00;;;;;;;4.97;3.45;;;;;;;15.75;51.65;96352.88;10452791;28;20037;-78
2021/12/12 03:50:07;;;;;;;6.10;3.70;;;;;;;15.76;51.39;96348.47;10453252;28;20061;-78
2021/12/12 03:55:11;;;;;;;4.90;3.38;;;;;;;15.76;51.37;96344.13;10434701;28;20501;-78
2021/12/12 04:00:21;;;;;;;5.22;3.38;;;;;;;15.76;51.26;96349.34;10452655;28;20049;-78
2021/12/12 04:05:23;;;;;;;5.35;3.20;;;;;;;15.75;51.50;96355.50;10452668;28;20053;-78
2021/12/12 04:10:25;;;;;;;7.03;3.88;;;;;;;15.75;51.29;96352.88;10453269;28;20517;-76
2021/12/12 04:15:27;;;;;;;5.70;3.63;;;;;;;15.75;51.45;96355.50;10459682;28;20398;-79
2021/12/12 04:20:34;;;;;;;3.35;3.05;;;;;;;15.76;51.04;96367.56;10441454;28;20064;-78
2021/12/12 04:25:36;;;;;;;5.50;3.10;;;;;;;15.76;51.30;96364.09;10459538;28;20114;-78
2021/12/12 04:30:38;;;;;;;5.95;3.08;;;;;;;15.75;51.22;96378.91;10459608;28;20049;-78
2021/12/12 04:35:39;;;;;;;4.85;3.17;;;;;;;15.75;51.11;96378.91;10458938;28;20479;-78
2021/12/12 04:40:41;;;;;;;3.97;3.25;;;;;;;15.75;51.10;96399.75;10458705;28;20049;-78
2021/12/12 04:45:58;;;;;;;3.75;3.08;;;;;;;15.75;51.15;96404.16;10458449;28;20063;-79
2021/12/12 04:51:13;;;;;;;3.13;2.75;;;;;;;15.73;51.27;96412.13;10458317;28;20045;-78
2021/12/12 04:56:22;;;;;;;3.58;2.92;;;;;;;15.73;51.16;96412.13;10458284;28;20041;-78
2021/12/12 05:01:41;;;;;;;2.90;2.50;;;;;;;15.74;50.91;96412.94;10457958;28;20065;-78
2021/12/12 05:06:49;;;;;;;3.97;2.90;;;;;;;15.72;51.17;96426.13;10440239;28;20045;-78
2021/12/12 05:12:00;;;;;;;;;;;;;;;15.71;51.18;96428.91;10440377;28;20049;-78
2021/12/12 05:17:02;;;;;;;2.92;2.63;;;;;;;15.70;51.17;96433.31;10439847;28;19924;-78
2021/12/12 05:22:18;;;;;;;4.82;2.75;;;;;;;15.68;50.99;96444.88;10456649;28;20059;-76
2021/12/12 05:27:23;;;;;;;4.25;2.63;;;;;;;15.70;51.16;96448.09;10456989;28;20049;-78
2021/12/12 05:32:28;;;;;;;2.90;2.47;;;;;;;15.67;51.30;96451.88;10456955;28;20118;-78
2021/12/12 05:37:30;;;;;;;3.20;2.40;;;;;;;15.68;51.08;96457.88;10456467;28;20041;-79
2021/12/12 05:42:32;;;;;;;2.60;2.40;;;;;;;15.69;51.11;96449.09;10456621;28;20064;-78
2021/12/12 05:47:36;;;;;;;2.40;2.20;;;;;;;15.67;51.13;96440.66;10456237;28;20053;-79
2021/12/12 05:52:38;;;;;;;2.60;2.40;;;;;;;15.67;51.29;96446.69;10456033;28;20475;-78
2021/12/12 05:57:43;;;;;;;2.67;2.40;;;;;;;15.65;51.23;96453.84;10456204;28;20041;-78
2021/12/12 06:02:45;;;;;;;2.30;2.10;;;;;;;15.67;51.02;96464.06;10454885;28;20459;-78
2021/12/12 06:07:49;;;;;;;4.68;2.60;;;;;;;15.66;51.00;96468.47;10455783;28;20032;-78
2021/12/12 06:12:52;;;;;;;2.58;2.20;;;;;;;15.66;51.31;96475.50;10455617;28;20052;-78
2021/12/12 06:17:55;;;;;;;2.60;2.40;;;;;;;15.65;51.12;96477.25;10455078;28;20139;-78
2021/12/12 06:22:58;;;;;;;4.43;2.30;;;;;;;15.66;51.25;96476.28;10454906;28;20053;-78
2021/12/12 06:27:59;;;;;;;4.65;2.08;;;;;;;15.65;51.20;96474.66;10454588;28;20479;-78
2021/12/12 06:33:01;;;;;;;2.20;2.00;;;;;;;15.65;51.10;96486.88;10454546;28;20123;-78
2021/12/12 06:38:06;;;;;;;2.20;1.90;;;;;;;15.64;51.15;96496.50;10436675;28;20464;-79
2021/12/12 06:43:11;;;;;;;2.20;1.98;;;;;;;15.64;50.86;96498.25;10436136;28;20065;-78
2021/12/12 06:48:14;;;;;;;2.10;1.90;;;;;;;15.64;51.08;96506.06;10454089;28;20037;-79
2021/12/12 06:53:19;;;;;;;2.45;2.00;;;;;;;15.61;51.16;96496.84;10431927;28;20121;-78
2021/12/12 06:58:21;;;;;;;2.47;1.98;;;;;;;15.62;50.81;96508.03;10425141;28;20417;-79
2021/12/12 07:03:24;;;;;;;2.53;2.00;;;;;;;15.63;51.16;96501.88;10453662;28;20477;-78
2021/12/12 07:08:26;;;;;;;2.55;1.90;;;;;;;15.60;50.84;96511.66;10453176;28;20439;-78
2021/12/12 07:13:29;;;;;;;1.98;1.80;;;;;;;15.61;50.92;96512.44;10433374;28;20091;-79
2021/12/12 07:18:33;;;;;;;2.20;1.83;;;;;;;15.59;50.83;96511.84;10431308;28;20037;-79
2021/12/12 07:23:40;;;;;;;1.90;1.80;;;;;;;15.62;50.92;96523.66;10433394;28;20521;-79
2021/12/12 07:28:42;;;;;;;4.28;1.80;;;;;;;15.62;50.83;96523.66;10432255;28;20355;-78
2021/12/12 07:33:49;;;;;;;3.70;1.90;;;;;;;15.60;50.62;96545.47;10450074;28;20075;-78
2021/12/12 07:38:55;;;;;;;1.63;1.52;;;;;;;15.61;50.67;96548.88;10432445;28;20486;-79
2021/12/12 07:43:58;;;;;;;1.90;1.80;;;;;;;15.60;50.91;96549.84;10452624;28;20056;-78
2021/12/12 07:49:00;;;;;;;2.40;2.20;;;;;;;15.63;50.63;96557.31;10458924;28;20044;-78
2021/12/12 07:54:04;;;;;;;2.13;1.90;;;;;;;15.63;50.39;96553.91;10460940;28;20045;-78
2021/12/12 07:59:07;;;;;;;6.28;2.92;;;;;;;15.63;52.41;96562.53;10460763;28;20139;-78
2021/12/12 08:04:10;;;;;;;17.05;3.15;;;;;;;15.66;52.95;96564.78;10460117;28;20092;-76
2021/12/12 08:09:12;;;;;;;8.80;3.08;;;;;;;15.72;55.82;96558.88;10454760;28;20037;-79
2021/12/12 08:14:19;;;;;;;9.60;2.97;;;;;;;15.79;56.47;96545.97;10457457;28;20047;-73
2021/12/12 08:19:27;;;;;;;13.85;3.22;;;;;;;15.84;57.15;96545.44;10452796;28;20037;-75
2021/12/12 08:24:30;;;;;;;19.52;3.25;;;;;;;15.91;58.12;96557.56;10459412;28;20106;-75
2021/12/12 08:29:33;;;;;;;15.65;3.15;;;;;;;15.98;57.08;96559.47;10460025;28;20052;-76
2021/12/12 08:34:36;;;;;;;13.15;3.20;;;;;;;16.03;57.18;96552.72;10459344;28;20376;-76
2021/12/12 08:39:38;;;;;;;17.10;3.65;;;;;;;16.07;57.54;96556.59;10460202;28;20483;-76
2021/12/12 08:44:40;;;;;;;12.23;3.15;;;;;;;16.11;57.53;96557.03;10459535;28;20495;-78
2021/12/12 08:49:45;;;;;;;7.38;2.80;;;;;;;16.12;57.91;96556.84;10459504;28;20045;-74
2021/12/12 08:54:49;;;;;;;11.20;2.60;;;;;;;16.21;56.72;96559.38;10458629;28;20411;-82
2021/12/12 08:59:52;;;;;;;13.85;2.50;;;;;;;16.24;56.45;96553.81;10457801;28;20394;-72
2021/12/12 09:04:59;;;;;;;14.88;3.47;;;;;;;16.32;57.31;96544.09;10458079;28;20399;-78
2021/12/12 09:10:08;;;;;;;8.73;3.35;;;;;;;16.41;56.45;96557.84;10457756;28;20545;-74
2021/12/12 09:15:22;;;;;;;8.85;3.03;;;;;;;16.49;56.55;96562.13;10439517;28;20047;-72
2021/12/12 09:20:34;;;;;;;12.77;3.40;;;;;;;16.53;55.63;96558.19;10457843;28;20453;-71
2021/12/12 09:25:50;;;;;;;6.20;2.70;;;;;;;16.58;55.39;96565.47;10457922;28;20045;-72
2021/12/12 09:30:52;;;;;;;10.88;2.97;;;;;;;16.60;54.92;96561.66;10457564;28;20475;-71
2021/12/12 09:36:09;;;;;;;7.38;2.72;;;;;;;16.61;54.60;96571.13;10457154;28;20045;-71
2021/12/12 09:41:45;;;;;;;8.13;2.40;;;;;;;16.64;54.24;96569.97;10457077;28;20049;-71
2021/12/12 09:47:31;;;;;;;16.25;2.80;;;;;;;16.65;53.78;96572.34;10456478;28;20094;-71
2021/12/12 09:53:02;;;;;;;6.97;2.70;;;;;;;16.66;53.71;96563.56;10456625;28;20087;-72
2021/12/12 09:58:20;;;;;;;7.57;2.58;;;;;;;16.70;53.21;96561.38;10456517;28;20487;-72
2021/12/12 10:03:28;;;;;;;7.75;2.70;;;;;;;16.70;52.97;96550.94;10455940;28;20053;-72
2021/12/12 10:08:47;;;;;;;9.00;2.65;;;;;;;16.72;52.88;96549.00;10438199;28;20479;-72
2021/12/12 10:14:37;;;;;;;5.57;2.40;;;;;;;16.72;52.73;96543.78;10455626;28;20041;-72
2021/12/12 10:19:38;;;;;;;9.70;2.55;;;;;;;16.72;52.33;96537.72;10364833;28;20060;-72
2021/12/12 10:24:49;;;;;;;7.22;2.85;;;;;;;16.73;52.18;96539.34;10455405;28;20053;-72
2021/12/12 10:30:04;;;;;;;7.13;3.03;;;;;;;16.72;52.17;96529.91;10437669;28;20049;-72
2021/12/12 10:35:10;;;;;;;5.30;2.63;;;;;;;16.73;52.13;96534.94;10454893;28;20056;-72
2021/12/12 10:40:22;;;;;;;9.35;3.08;;;;;;;16.72;52.02;96522.09;10454944;28;20037;-72
2021/12/12 10:45:33;;;;;;;3.75;2.70;;;;;;;16.72;52.02;96522.09;10454523;28;20057;-72
2021/12/12 10:51:13;;;;;;;4.82;2.55;;;;;;;16.73;51.86;96513.28;10454707;28;20049;-72
2021/12/12 10:56:44;;;;;;;7.50;2.50;;;;;;;16.72;51.99;96503.84;10286919;28;20486;-71
2021/12/12 11:01:50;;;;;;;5.38;2.55;;;;;;;16.72;51.92;96507.28;10432810;28;20068;-72
2021/12/12 11:06:59;;;;;;;5.68;2.75;;;;;;;16.71;51.67;96507.47;10436622;28;20587;-72
2021/12/12 11:12:10;;;;;;;3.72;2.60;;;;;;;16.71;51.67;96503.03;10453963;28;20049;-72
2021/12/12 11:17:25;;;;;;;5.25;2.67;;;;;;;16.68;51.71;96504.22;10454223;28;20049;-72
2021/12/12 11:22:56;;;;;;;4.20;2.75;;;;;;;16.70;51.61;96493.59;10458072;28;20045;-72
2021/12/12 11:28:06;;;;;;;3.22;2.40;;;;;;;16.73;51.51;96485.41;10462703;28;20482;-72
2021/12/12 11:33:12;;;;;;;9.55;2.78;;;;;;;16.74;51.60;96483.63;10462135;28;20103;-72
2021/12/12 11:38:35;;;;;;;4.30;2.80;;;;;;;16.77;51.57;96484.06;10462179;28;20441;-72
2021/12/12 11:43:59;;;;;;;3.92;2.45;;;;;;;16.80;51.14;96486.31;10461483;28;20106;-72
2021/12/12 11:49:25;;;;;;;5.50;3.33;;;;;;;16.81;50.98;96487.94;10461738;28;20040;-72
2021/12/12 11:54:46;;;;;;;3.53;2.90;;;;;;;16.85;50.87;96486.56;10461077;28;20036;-72
2021/12/12 12:00:01;;;;;;;6.13;2.80;;;;;;;16.84;50.61;96479.69;10460851;28;20349;-72
2021/12/12 12:05:12;;;;;;;6.28;2.75;;;;;;;16.86;50.83;96482.97;10461109;28;20045;-72
2021/12/12 12:10:29;;;;;;;3.45;2.60;;;;;;;16.88;50.51;96482.81;10442854;28;20521;-72
2021/12/12 12:16:12;;;;;;;3.78;3.00;;;;;;;16.91;50.43;96479.00;10460600;28;20056;-72
2021/12/12 12:21:18;;;;;;;5.68;3.00;;;;;;;16.94;50.39;96482.06;10422980;28;20053;-73
2021/12/12 12:32:18;;;;;;;3.92;2.78;;;;;;;16.95;50.11;96481.03;10459677;28;20147;-73
2021/12/12 12:37:54;;;;;;;3.55;2.72;;;;;;;16.97;50.18;96471.25;10442400;28;20049;-73
2021/12/12 12:43:24;;;;;;;4.05;2.72;;;;;;;16.98;49.82;96467.63;10441443;28;20052;-72
2021/12/12 12:48:44;;;;;;;3.15;2.70;;;;;;;16.97;49.90;96465.22;10441442;28;20151;-72
2021/12/12 12:54:23;;;;;;;4.10;3.15;;;;;;;16.99;49.84;96465.81;10459067;28;20091;-72
2021/12/12 12:59:36;;;;;;;4.15;3.20;;;;;;;16.98;49.75;96466.84;10458733;28;20053;-72
2021/12/12 13:05:00;;;;;;;3.70;2.67;;;;;;;17.00;49.80;96454.41;10458876;28;20055;-72
2021/12/12 13:10:05;;;;;;;4.18;3.00;;;;;;;17.00;49.81;96446.59;10458613;28;20048;-72
2021/12/12 13:15:20;;;;;;;3.25;2.88;;;;;;;17.00;49.79;96447.38;10458071;28;20049;-72
2021/12/12 13:20:49;;;;;;;6.05;2.88;;;;;;;17.01;49.50;96459.44;10458247;28;20045;-72
2021/12/12 13:25:58;;;;;;;4.18;3.15;;;;;;;17.03;49.44;96456.63;10439843;28;20049;-72
2021/12/12 13:31:22;;;;;;;4.65;2.58;;;;;;;17.02;49.46;96445.41;10439588;28;20495;-72
2021/12/12 13:36:43;;;;;;;4.55;3.08;;;;;;;17.01;49.46;96433.34;10439654;28;20049;-72
2021/12/12 13:42:06;;;;;;;3.50;2.97;;;;;;;17.01;49.13;96446.41;10456848;28;20052;-71
2021/12/12 13:47:29;;;;;;;5.15;2.95;;;;;;;17.00;49.36;96438.75;10438377;28;20160;-72
2021/12/12 13:52:45;;;;;;;4.22;3.13;;;;;;;16.99;49.21;96434.53;10456619;28;20534;-72
2021/12/12 13:58:07;;;;;;;3.95;3.17;;;;;;;16.99;49.24;96437.13;10456494;28;20435;-72
2021/12/12 14:03:27;;;;;;;3.60;3.10;;;;;;;16.99;49.32;96448.41;10481039;28;20486;-72
2021/12/12 14:08:35;;;;;;;3.83;2.97;;;;;;;17.00;49.28;96454.41;10496439;28;20148;-72
2021/12/12 14:13:45;;;;;;;7.22;3.72;;;;;;;16.99;49.36;96463.22;10495882;28;20052;-73
2021/12/12 14:18:54;;;;;;;11.90;4.07;;;;;;;16.98;50.25;96459.81;10484486;28;20117;-73
2021/12/12 14:23:58;;;;;;;19.42;4.63;;;;;;;16.98;49.83;96466.84;10455897;28;20040;-76
2021/12/12 14:29:09;;;;;;;13.32;4.68;;;;;;;16.97;49.88;96470.44;10453686;28;20045;-77
2021/12/12 14:34:15;;;;;;;14.73;4.90;;;;;;;16.96;49.94;96474.06;10453185;28;20177;-76
2021/12/12 14:39:23;;;;;;;11.45;4.97;;;;;;;16.95;49.92;96462.78;10454622;28;20095;-76
2021/12/12 14:44:30;;;;;;;11.25;4.90;;;;;;;16.97;49.82;96470.44;10454202;28;20053;-76
2021/12/12 14:49:36;;;;;;;17.92;5.00;;;;;;;16.96;49.82;96476.66;10454404;28;20459;-76
2021/12/12 14:54:41;;;;;;;18.67;4.63;;;;;;;16.96;49.78;96479.25;10453816;28;20044;-76
2021/12/12 14:59:46;;;;;;;10.88;4.43;;;;;;;16.95;49.44;96465.41;10448373;28;20056;-76
2021/12/12 15:05:07;;;;;;;11.25;4.63;;;;;;;16.94;49.75;96476.00;10412129;28;20056;-75
2021/12/12 15:10:26;;;;;;;10.38;4.50;;;;;;;16.93;49.41;96474.41;10412429;28;20049;-76
2021/12/12 15:15:37;;;;;;;9.88;3.95;;;;;;;16.92;49.64;96485.84;10411969;28;20410;-76
2021/12/12 15:20:44;;;;;;;7.35;4.07;;;;;;;16.89;49.40;96487.00;10394511;28;20076;-76
2021/12/12 15:25:52;;;;;;;12.07;4.87;;;;;;;16.88;49.61;96489.78;10411983;28;20052;-76
2021/12/12 15:30:59;;;;;;;12.65;4.15;;;;;;;16.89;49.41;96491.41;10412304;28;20479;-75
2021/12/12 15:36:07;;;;;;;9.27;4.45;;;;;;;16.85;49.50;96489.19;10411791;28;20038;-76
2021/12/12 15:41:13;;;;;;;9.27;4.32;;;;;;;16.85;49.47;96499.63;10411929;28;20049;-75
2021/12/12 15:46:21;;;;;;;8.32;4.15;;;;;;;16.81;49.40;96498.34;10411717;28;20442;-75
2021/12/12 15:51:28;;;;;;;9.02;3.80;;;;;;;16.79;49.34;96500.31;10412069;28;20061;-76
2021/12/12 15:56:40;;;;;;;7.68;4.10;;;;;;;16.79;49.55;96500.31;10412060;28;20133;-76
2021/12/12 16:01:50;;;;;;;7.32;3.80;;;;;;;16.78;49.43;96503.94;10411427;28;20111;-76
2021/12/12 16:07:02;;;;;;;8.43;4.00;;;;;;;16.78;49.28;96495.28;10413304;28;20041;-76
2021/12/12 16:12:09;;;;;;;8.18;3.75;;;;;;;16.76;49.31;96495.47;10419007;28;20045;-76
2021/12/12 16:17:18;;;;;;;6.85;4.10;;;;;;;16.77;49.35;96501.50;10419070;28;20494;-77
2021/12/12 16:22:24;;;;;;;10.68;4.25;;;;;;;16.76;49.39;96498.06;10418588;28;20051;-76
2021/12/12 16:27:27;;;;;;;7.20;3.80;;;;;;;16.77;49.32;96493.69;10418754;28;20056;-76
2021/12/12 16:32:37;;;;;;;5.60;3.95;;;;;;;16.77;49.12;96499.69;10418575;28;20099;-77
2021/12/12 16:37:39;;;;;;;6.47;3.45;;;;;;;16.75;49.29;96496.47;10418165;28;20046;-76
2021/12/12 16:42:51;;;;;;;6.90;3.60;;;;;;;16.75;49.06;96503.47;10418195;28;20505;-76
2021/12/12 16:47:55;;;;;;;6.03;3.53;;;;;;;16.75;49.04;96496.47;10417900;28;20037;-77
2021/12/12 16:52:58;;;;;;;6.05;4.20;;;;;;;16.74;49.37;96504.50;10417955;28;20689;-77
2021/12/12 16:58:28;;;;;;;6.53;3.95;;;;;;;16.73;49.29;96495.84;10399634;28;20045;-76
2021/12/12 17:03:41;;;;;;;4.88;3.45;;;;;;;16.72;49.27;96501.22;10409529;28;20057;-76
2021/12/12 17:13:53;;;;;;;5.45;3.40;;;;;;;16.68;49.04;96511.22;10416867;28;20087;-77
2021/12/12 17:18:56;;;;;;;7.32;3.90;;;;;;;16.69;49.30;96524.09;10397663;28;20464;-76
2021/12/12 17:24:09;;;;;;;5.25;3.25;;;;;;;16.69;49.36;96525.91;10416318;28;20055;-77
2021/12/12 17:29:24;;;;;;;3.80;3.08;;;;;;;16.69;49.20;96526.69;10416473;28;20037;-77
2021/12/12 17:34:41;;;;;;;4.32;3.17;;;;;;;16.66;49.10;96532.28;10398313;28;20053;-77
2021/12/12 17:39:50;;;;;;;4.65;3.30;;;;;;;16.68;49.21;96534.69;10398458;28;20041;-77
2021/12/12 17:44:55;;;;;;;4.55;3.42;;;;;;;16.66;49.09;96539.28;10415633;28;20464;-76
2021/12/12 17:50:20;;;;;;;5.38;3.53;;;;;;;16.66;49.19;96531.47;10415681;28;20045;-77
2021/12/12 17:55:44;;;;;;;5.47;3.30;;;;;;;16.66;49.37;96534.06;10416297;28;20044;-77
2021/12/12 18:00:57;;;;;;;4.60;3.28;;;;;;;16.65;48.97;96527.25;10415825;28;20057;-77
2021/12/12 18:06:07;;;;;;;6.03;3.47;;;;;;;16.63;49.15;96522.22;10415832;28;20041;-77
2021/12/12 18:11:12;;;;;;;3.97;3.05;;;;;;;16.63;49.11;96516.19;10397952;28;20058;-77
2021/12/12 18:16:23;;;;;;;5.53;3.40;;;;;;;16.63;48.95;96511.78;10415236;28;20415;-77
2021/12/12 18:21:50;;;;;;;4.70;3.05;;;;;;;16.64;48.96;96518.63;10397136;28;20057;-75
2021/12/12 18:27:10;;;;;;;5.15;3.60;;;;;;;16.64;49.21;96523.03;10414937;28;20087;-75
2021/12/12 18:32:39;;;;;;;4.32;3.20;;;;;;;16.64;48.98;96510.00;10397194;28;20049;-77
2021/12/12 18:37:49;;;;;;;8.63;3.50;;;;;;;16.62;48.92;96506.75;10414743;28;20044;-77
2021/12/12 18:42:52;;;;;;;4.88;3.10;;;;;;;16.63;48.77;96506.56;10396453;28;20061;-77
2021/12/12 18:47:59;;;;;;;4.75;3.22;;;;;;;16.61;48.78;96507.75;10414279;28;20499;-77
2021/12/12 18:53:09;;;;;;;4.82;3.30;;;;;;;16.61;48.88;96508.56;10414249;28;20045;-77
2021/12/12 18:58:24;;;;;;;4.03;3.08;;;;;;;16.61;48.90;96507.75;10414063;28;20154;-76
2021/12/12 19:03:35;;;;;;;4.50;3.40;;;;;;;16.61;48.66;96507.75;10413865;28;20053;-76
2021/12/12 19:08:45;;;;;;;4.32;3.00;;;;;;;16.59;48.76;96505.34;10396239;28;20041;-75
2021/12/12 19:13:52;;;;;;;4.00;3.00;;;;;;;16.58;48.85;96506.31;10413644;28;20041;-77
2021/12/12 19:18:58;;;;;;;3.97;3.22;;;;;;;16.59;48.84;96507.94;10413544;28;20041;-77
2021/12/12 19:24:04;;;;;;;5.28;3.42;;;;;;;16.57;48.90;96509.91;10413317;28;20057;-77
2021/12/12 19:29:09;;;;;;;5.55;3.22;;;;;;;16.59;48.80;96514.94;10413539;28;20096;-77
2021/12/12 19:34:17;;;;;;;3.97;3.22;;;;;;;16.58;48.77;96516.75;10395392;28;20045;-77
2021/12/12 19:39:31;;;;;;;4.05;3.08;;;;;;;16.57;48.80;96517.72;10413258;28;20091;-77
2021/12/12 19:44:33;;;;;;;4.13;3.20;;;;;;;16.58;48.71;96516.75;10418759;28;20056;-77
2021/12/12 19:49:37;;;;;;;4.55;3.20;;;;;;;16.58;48.89;96510.72;10421320;28;20052;-78
2021/12/12 19:54:38;;;;;;;3.67;3.08;;;;;;;16.59;48.73;96518.38;10421136;28;20060;-77
2021/12/12 19:59:43;;;;;;;3.55;3.17;;;;;;;16.60;48.69;96519.16;10403040;28;20076;-77
2021/12/12 20:04:49;;;;;;;4.63;3.25;;;;;;;16.56;49.02;96507.47;10420790;28;20065;-77
2021/12/12 20:10:00;;;;;;;3.40;3.10;;;;;;;16.56;48.91;96508.31;10420486;28;20041;-78
2021/12/12 20:15:11;;;;;;;4.40;3.22;;;;;;;16.57;48.75;96509.09;10420273;28;20037;-77
2021/12/12 20:20:29;;;;;;;4.00;3.35;;;;;;;16.57;48.87;96512.50;10402124;28;20092;-76
2021/12/12 20:25:37;;;;;;;3.87;3.20;;;;;;;16.56;48.75;96516.13;10419891;28;20445;-77
2021/12/12 20:30:47;;;;;;;4.28;3.30;;;;;;;16.54;48.92;96514.69;10419482;28;20045;-77
2021/12/12 20:35:57;;;;;;;3.97;2.92;;;;;;;16.56;48.68;96504.88;10419746;28;20038;-77
2021/12/12 20:41:05;;;;;;;3.75;3.20;;;;;;;16.54;48.79;96506.88;10419063;28;20037;-77
2021/12/12 20:46:15;;;;;;;3.10;2.80;;;;;;;16.54;48.90;96506.88;10419037;28;20103;-77
2021/12/12 20:51:45;;;;;;;4.32;3.22;;;;;;;16.54;48.71;96502.44;10418701;28;20050;-77
2021/12/12 20:57:00;;;;;;;4.05;2.90;;;;;;;16.54;48.67;96502.44;10418117;28;20033;-77
2021/12/12 21:02:10;;;;;;;3.70;2.97;;;;;;;16.53;48.83;96502.63;10418421;28;20089;-78
2021/12/12 21:07:15;;;;;;;3.40;3.10;;;;;;;16.53;48.89;96500.03;10418202;28;20092;-78
2021/12/12 21:12:32;;;;;;;3.60;3.15;;;;;;;16.52;48.81;96499.22;10417906;28;20073;-77
2021/12/12 21:17:34;;;;;;;3.85;3.25;;;;;;;16.51;48.87;96500.22;10418093;28;20641;-77
2021/12/12 21:22:46;;;;;;;5.00;2.90;;;;;;;16.54;48.72;96493.84;10417613;28;20377;-77
2021/12/12 21:27:47;;;;;;;3.72;3.05;;;;;;;16.52;48.66;96486.19;10417240;28;20049;-77
2021/12/12 21:32:50;;;;;;;4.05;3.30;;;;;;;16.53;48.71;96490.44;10417138;28;20072;-77
2021/12/12 21:37:52;;;;;;;3.75;2.88;;;;;;;16.54;48.52;96479.00;10416763;28;20518;-78
2021/12/12 21:43:10;;;;;;;3.42;3.13;;;;;;;16.53;48.86;96481.78;10416735;28;20049;-79
2021/12/12 21:48:12;;;;;;;3.92;3.15;;;;;;;16.52;48.65;96491.41;10449697;28;20099;-75
2021/12/12 21:53:26;;;;;;;6.57;3.38;;;;;;;16.53;48.46;96497.44;10457286;28;20049;-75
2021/12/12 21:58:32;;;;;;;6.85;2.85;;;;;;;16.53;48.49;96503.47;10400244;28;20395;-75
2021/12/12 22:03:50;;;;;;;4.75;3.05;;;;;;;16.53;48.54;96500.84;10450647;28;20099;-75
2021/12/12 22:08:57;;;;;;;4.00;3.47;;;;;;;16.53;48.33;96498.25;10455214;28;20049;-70
2021/12/12 22:14:33;;;;;;;5.68;3.30;;;;;;;16.53;48.24;96503.47;10454417;28;20041;-75
2021/12/12 22:19:38;;;;;;;4.30;3.47;;;;;;;16.52;48.28;96507.06;10454945;28;20127;-75
2021/12/12 22:24:47;;;;;;;3.88;3.30;;;;;;;16.53;48.28;96505.25;10454628;28;20040;-75
2021/12/12 22:29:53;;;;;;;5.50;3.30;;;;;;;16.52;48.20;96509.66;10454421;28;20057;-75
2021/12/12 22:35:05;;;;;;;3.67;3.25;;;;;;;16.52;48.14;96495.81;10454189;28;20578;-75
2021/12/12 22:40:12;;;;;;;3.53;2.85;;;;;;;16.54;48.19;96493.84;10453958;28;20071;-75
2021/12/12 22:45:22;;;;;;;3.75;3.25;;;;;;;16.54;47.97;96499.06;10453958;28;20049;-74
2021/12/12 22:50:41;;;;;;;4.75;3.55;;;;;;;16.54;48.03;96504.25;10453950;28;20052;-74
2021/12/12 22:55:46;;;;;;;4.20;3.33;;;;;;;16.53;48.25;96506.06;10453187;28;20049;-75
2021/12/12 23:01:19;;;;;;;3.95;3.33;;;;;;;16.54;48.09;96492.03;10453689;28;20049;-75
2021/12/12 23:06:24;;;;;;;5.18;3.00;;;;;;;16.54;48.09;96486.03;10454611;28;20044;-71
2021/12/12 23:11:28;;;;;;;4.30;3.17;;;;;;;16.54;48.19;96473.00;10454783;28;20113;-73
2021/12/12 23:16:35;;;;;;;4.07;3.22;;;;;;;16.53;47.98;96472.19;10453073;28;20048;-75
2021/12/12 23:21:49;;;;;;;4.05;3.28;;;;;;;16.52;48.00;96469.78;10454532;28;20064;-73
2021/12/12 23:27:08;;;;;;;4.22;3.60;;;;;;;16.52;48.02;96475.78;10453683;28;20053;-75
2021/12/12 23:32:36;;;;;;;4.75;3.20;;;;;;;16.51;47.99;96458.50;10454190;28;20049;-75
2021/12/12 23:37:49;;;;;;;3.85;3.15;;;;;;;16.50;48.08;96454.31;10412722;28;20037;-75
2021/12/12 23:43:12;;;;;;;4.78;3.42;;;;;;;16.50;48.04;96456.94;10395291;28;20041;-72
2021/12/12 23:48:18;;;;;;;4.30;3.47;;;;;;;16.51;47.98;96450.69;10443167;28;20148;-76
2021/12/12 23:53:25;;;;;;;4.55;3.40;;;;;;;16.53;47.92;96453.13;10453287;28;20052;-71
2021/12/12 23:58:35;;;;;;;4.55;3.45;;;;;;;16.53;47.87;96453.13;10453836;28;20041;-75
